Time;durP1;ratioP1;P1;durP2;ratioP2;P2;SDS_P1;SDS_P2;PMS_P1;PMS_P2;Temp;Humidity;BMP_temperature;BMP_pressure;BME280_temperature;BME280_humidity;BME280_pressure;Samples;Min_cycle;Max_cycle;Signal;HPM_P1;HPM_P2
2022/06/21 00:02:19;;;;;;;0.52;0.52;;;22.90;96.60;;;;;;5003776;28;20085;-91
2022/06/21 00:04:45;;;;;;;0.63;0.60;;;22.90;96.30;;;;;;5004609;28;20069;-92
2022/06/21 00:07:18;;;;;;;0.40;0.40;;;22.80;96.20;;;;;;5003169;28;20033;-92
2022/06/21 00:09:44;;;;;;;0.40;0.40;;;22.80;99.00;;;;;;5003479;28;20065;-91
2022/06/21 00:12:12;;;;;;;2.70;0.77;;;22.80;98.10;;;;;;5001850;28;20034;-90
2022/06/21 00:15:09;;;;;;;0.32;0.32;;;22.80;98.30;;;;;;4985944;28;20040;-80
2022/06/21 00:17:35;;;;;;;3.20;0.40;;;22.80;98.00;;;;;;4996435;28;20121;-92
2022/06/21 00:20:01;;;;;;;1.95;0.93;;;22.80;97.40;;;;;;4998244;28;20188;-91
2022/06/21 00:22:57;;;;;;;0.63;0.40;;;22.80;96.90;;;;;;4995574;28;20416;-80
2022/06/21 00:25:26;;;;;;;0.10;0.10;;;23.00;97.70;;;;;;4963350;28;20050;-91
2022/06/21 00:27:54;;;;;;;0.35;0.35;;;23.00;97.20;;;;;;4996161;28;20053;-91
2022/06/21 00:30:21;;;;;;;1.45;1.35;;;22.90;96.30;;;;;;4999917;28;20044;-91
2022/06/21 00:32:50;;;;;;;0.32;0.32;;;22.90;96.10;;;;;;4999865;28;20018;-93
2022/06/21 00:35:21;;;;;;;0.57;0.57;;;22.80;96.90;;;;;;4996205;28;20026;-90
2022/06/21 00:37:48;;;;;;;0.50;0.50;;;22.90;97.90;;;;;;4995953;28;20026;-89
2022/06/21 00:40:30;;;;;;;0.28;0.28;;;22.70;99.30;;;;;;4995436;28;20107;-89
2022/06/21 00:43:21;;;;;;;0.25;0.25;;;22.80;98.40;;;;;;4992794;28;20029;-88
2022/06/21 00:45:49;;;;;;;0.10;0.10;;;22.80;98.20;;;;;;4993037;28;20062;-89
2022/06/21 00:48:39;;;;;;;0.52;0.30;;;22.70;99.80;;;;;;4993680;28;20037;-88
2022/06/21 00:51:40;;;;;;;0.60;0.60;;;22.70;99.20;;;;;;4992195;28;20025;-89
2022/06/21 00:54:12;;;;;;;0.30;0.30;;;22.80;99.10;;;;;;4910854;29;20043;-88
2022/06/21 00:56:53;;;;;;;0.47;0.43;;;22.60;98.70;;;;;;4913788;29;20036;-89
2022/06/21 00:59:29;;;;;;;0.17;0.17;;;22.50;99.20;;;;;;4925884;28;20499;-90
2022/06/21 01:02:15;;;;;;;1.75;1.10;;;22.60;98.70;;;;;;4934786;29;20048;-90
2022/06/21 01:04:47;;;;;;;0.10;0.10;;;22.50;98.70;;;;;;4935927;29;20031;-89
2022/06/21 01:07:14;;;;;;;0.45;0.45;;;22.40;98.80;;;;;;4934333;29;20043;-89
2022/06/21 01:09:49;;;;;;;0.60;0.60;;;22.40;99.00;;;;;;4917745;29;20145;-88
2022/06/21 01:12:17;;;;;;;0.20;0.20;;;22.40;99.10;;;;;;4931629;29;20071;-88
2022/06/21 01:14:49;;;;;;;0.63;0.40;;;22.40;98.30;;;;;;4932434;28;20517;-89
2022/06/21 01:17:17;;;;;;;0.43;0.43;;;22.40;98.30;;;;;;4932209;29;20105;-88
2022/06/21 01:19:49;;;;;;;0.45;0.30;;;22.40;99.00;;;;;;4933035;29;20042;-88
2022/06/21 01:22:36;;;;;;;0.45;0.45;;;22.40;98.90;;;;;;4917363;29;20051;-88
2022/06/21 01:25:31;;;;;;;0.43;0.43;;;22.30;98.90;;;;;;4932634;28;20114;-89
2022/06/21 01:27:57;;;;;;;;;;;22.30;98.90;;;;;;4955655;28;20046;-88
2022/06/21 01:30:26;;;;;;;1.77;0.80;;;22.30;97.70;;;;;;5019031;28;19924;-88
2022/06/21 01:32:52;;;;;;;0.40;0.15;;;22.40;97.20;;;;;;4998490;28;20370;-89
2022/06/21 01:35:30;;;;;;;0.50;0.40;;;22.40;96.20;;;;;;5017735;28;20037;-88
2022/06/21 01:37:57;;;;;;;0.88;0.88;;;22.40;95.90;;;;;;5017270;28;20033;-88
2022/06/21 01:40:29;;;;;;;5.13;1.45;;;22.40;95.40;;;;;;5016820;28;20412;-89
2022/06/21 01:43:02;;;;;;;1.05;0.50;;;22.30;95.90;;;;;;5017167;28;20022;-88
2022/06/21 01:45:39;;;;;;;0.75;0.55;;;22.30;95.40;;;;;;5018333;28;20038;-89
2022/06/21 01:48:11;;;;;;;0.77;0.75;;;22.30;95.00;;;;;;5016711;28;20080;-88
2022/06/21 01:50:39;;;;;;;0.20;0.20;;;22.40;94.70;;;;;;5016078;28;20420;-88
2022/06/21 01:53:06;;;;;;;0.47;0.47;;;22.50;94.30;;;;;;5015212;28;20072;-88
2022/06/21 01:55:42;;;;;;;1.15;0.68;;;22.50;94.10;;;;;;4997241;28;20496;-88
2022/06/21 01:58:14;;;;;;;0.20;0.20;;;22.50;94.50;;;;;;5016453;28;20044;-88
2022/06/21 02:00:46;;;;;;;0.32;0.32;;;22.50;94.20;;;;;;5015788;28;20119;-88
2022/06/21 02:03:17;;;;;;;2.15;1.50;;;22.50;94.30;;;;;;4994780;28;20030;-88
2022/06/21 02:05:55;;;;;;;0.20;0.20;;;22.50;94.30;;;;;;5017637;28;20030;-88
2022/06/21 02:08:26;;;;;;;4.57;1.45;;;22.50;94.20;;;;;;5019367;28;20033;-88
2022/06/21 02:10:56;;;;;;;0.90;0.52;;;22.50;94.20;;;;;;5016052;28;20021;-88
2022/06/21 02:13:36;;;;;;;0.40;0.40;;;22.40;94.20;;;;;;5017140;28;20753;-87
2022/06/21 02:16:17;;;;;;;1.10;0.93;;;22.40;94.30;;;;;;5017706;28;20051;-86
2022/06/21 02:18:48;;;;;;;0.88;0.52;;;22.40;94.30;;;;;;5019270;28;20034;-86
2022/06/21 02:21:20;;;;;;;0.43;0.43;;;22.30;94.70;;;;;;5017372;28;20041;-86
2022/06/21 02:23:53;;;;;;;1.23;0.98;;;22.30;94.60;;;;;;5018297;28;20033;-86
2022/06/21 02:26:21;;;;;;;0.00;0.00;;;22.30;94.80;;;;;;4994732;28;21820;-86
2022/06/21 02:28:47;;;;;;;1.05;0.52;;;22.30;95.80;;;;;;5017058;28;20056;-87
2022/06/21 02:31:13;;;;;;;2.17;1.13;;;22.00;96.50;;;;;;5014788;28;20524;-87
2022/06/21 02:33:41;;;;;;;1.53;1.07;;;22.00;97.00;;;;;;5015631;28;20280;-87
2022/06/21 02:36:21;;;;;;;0.32;0.32;;;22.10;97.10;;;;;;5014257;28;20025;-87
2022/06/21 02:38:56;;;;;;;0.68;0.40;;;21.90;97.90;;;;;;5014905;28;20048;-88
2022/06/21 02:41:39;;;;;;;2.30;1.45;;;22.00;97.50;;;;;;5015158;28;20041;-87
2022/06/21 02:44:14;;;;;;;0.38;0.35;;;22.10;97.90;;;;;;5014390;28;20034;-86
2022/06/21 02:46:45;;;;;;;0.30;0.30;;;21.80;99.20;;;;;;5013665;28;20487;-87
2022/06/21 02:49:26;;;;;;;1.10;0.70;;;22.00;97.10;;;;;;5014814;28;20087;-87
2022/06/21 02:51:58;;;;;;;0.10;0.10;;;22.20;96.20;;;;;;5013289;28;20079;-87
2022/06/21 02:54:34;;;;;;;3.60;1.75;;;21.70;99.80;;;;;;5013995;28;20022;-77
2022/06/21 02:57:23;;;;;;;1.45;0.80;;;21.80;98.70;;;;;;5011922;28;20038;-77
2022/06/21 02:59:51;;;;;;;0.88;0.82;;;22.00;99.00;;;;;;5014548;28;20037;-78
2022/06/21 03:02:22;;;;;;;0.30;0.30;;;21.90;99.20;;;;;;5015369;28;20057;-78
2022/06/21 03:05:03;;;;;;;2.42;1.17;;;22.20;96.20;;;;;;5013276;28;20025;-78
2022/06/21 03:07:36;;;;;;;3.13;0.98;;;22.40;94.80;;;;;;5014288;28;20048;-77
2022/06/21 03:10:02;;;;;;;0.47;0.35;;;22.30;95.00;;;;;;5016803;28;20033;-77
2022/06/21 03:12:32;;;;;;;0.30;0.30;;;22.30;94.50;;;;;;5014812;28;20056;-77
2022/06/21 03:15:06;;;;;;;9.52;0.70;;;22.30;94.80;;;;;;5014053;28;20042;-77
2022/06/21 03:17:43;;;;;;;0.45;0.40;;;22.20;95.70;;;;;;5014465;28;20408;-78
2022/06/21 03:20:13;;;;;;;1.98;1.02;;;22.10;95.90;;;;;;5013279;28;20040;-78
2022/06/21 03:22:40;;;;;;;2.00;1.00;;;22.00;96.00;;;;;;5013020;28;20037;-78
2022/06/21 03:25:15;;;;;;;0.45;0.45;;;21.90;96.40;;;;;;5013353;28;20077;-77
2022/06/21 03:27:47;;;;;;;11.30;0.95;;;22.00;96.90;;;;;;5015847;28;20116;-77
2022/06/21 03:30:13;;;;;;;0.63;0.50;;;21.70;98.80;;;;;;5014152;28;20030;-77
2022/06/21 03:32:39;;;;;;;0.30;0.30;;;21.60;98.90;;;;;;5014907;28;20532;-77
2022/06/21 03:35:06;;;;;;;0.10;0.10;;;21.70;98.50;;;;;;4995350;28;20108;-78
2022/06/21 03:37:36;;;;;;;0.82;0.77;;;21.80;97.70;;;;;;5014184;28;20063;-78
2022/06/21 03:42:49;;;;;;;;;;;21.80;97.50;;;;;;5015759;28;20336;-78
2022/06/21 03:45:19;;;;;;;0.03;0.03;;;21.80;97.50;;;;;;5016644;28;19945;-78
2022/06/21 03:47:57;;;;;;;12.82;2.83;;;21.90;97.60;;;;;;5018069;28;20041;-78
2022/06/21 03:50:25;;;;;;;2.03;0.82;;;22.00;97.60;;;;;;5016815;28;20029;-78
2022/06/21 03:53:11;;;;;;;2.10;1.25;;;22.10;97.00;;;;;;5016273;28;20037;-79
2022/06/21 03:55:48;;;;;;;0.70;0.67;;;22.10;97.20;;;;;;5013762;28;20034;-79
2022/06/21 03:58:21;;;;;;;2.55;0.85;;;22.20;97.20;;;;;;5012700;28;20056;-83
2022/06/21 04:00:51;;;;;;;0.38;0.38;;;22.20;97.40;;;;;;4995210;28;20037;-83
2022/06/21 04:03:49;;;;;;;0.77;0.68;;;19.50;99.90;;;;;;4994476;28;20033;-82
2022/06/21 04:06:30;;;;;;;1.50;1.00;;;19.60;99.90;;;;;;5000235;28;20689;-82
2022/06/21 04:09:08;;;;;;;1.50;1.40;;;19.50;99.90;;;;;;4998571;28;20041;-82
2022/06/21 04:11:45;;;;;;;0.60;0.60;;;19.20;99.90;;;;;;5017689;28;20754;-80
2022/06/21 04:14:22;;;;;;;1.02;0.85;;;19.10;99.90;;;;;;5001574;28;20025;-81
2022/06/21 04:17:17;;;;;;;0.40;0.40;;;19.30;99.90;;;;;;5018101;28;20022;-81
2022/06/21 04:20:04;;;;;;;0.80;0.70;;;19.00;99.90;;;;;;5019590;28;20025;-81
2022/06/21 04:22:50;;;;;;;1.55;1.17;;;19.40;99.90;;;;;;5005124;28;20100;-81
2022/06/21 04:25:25;;;;;;;0.30;0.30;;;19.50;99.90;;;;;;5012057;28;20033;-81
2022/06/21 04:28:07;;;;;;;0.47;0.43;;;19.20;99.90;;;;;;5020323;28;20040;-81
2022/06/21 04:30:43;;;;;;;0.40;0.25;;;19.00;99.90;;;;;;5016125;28;20787;-81
2022/06/21 04:33:17;;;;;;;5.13;2.50;;;19.00;99.90;;;;;;5021194;28;20308;-78
2022/06/21 04:36:00;;;;;;;1.92;1.75;;;18.90;99.90;;;;;;5005157;28;20120;-80
2022/06/21 04:38:32;;;;;;;0.60;0.60;;;18.90;99.90;;;;;;5021119;28;20033;-80
2022/06/21 04:41:22;;;;;;;0.80;0.40;;;18.80;99.90;;;;;;5002632;28;20484;-80
2022/06/21 04:43:59;;;;;;;8.63;1.17;;;18.80;99.90;;;;;;5020258;28;20129;-80
2022/06/21 04:46:50;;;;;;;1.08;0.73;;;18.80;99.90;;;;;;5003399;28;20045;-82
2022/06/21 04:49:36;;;;;;;0.45;0.38;;;18.90;99.90;;;;;;5014307;28;20030;-81
2022/06/21 04:52:37;;;;;;;2.25;1.80;;;19.00;99.90;;;;;;5009185;28;20036;-81
2022/06/21 04:55:04;;;;;;;0.40;0.40;;;19.10;99.90;;;;;;5013427;28;20520;-81
2022/06/21 04:57:30;;;;;;;;;;;19.30;99.90;;;;;;5019123;28;20776;-81
2022/06/21 04:59:59;;;;;;;0.47;0.47;;;19.20;99.90;;;;;;5020677;28;20007;-81
2022/06/21 05:02:36;;;;;;;0.90;0.77;;;19.00;99.90;;;;;;5018076;28;20075;-81
2022/06/21 05:05:40;;;;;;;0.55;0.52;;;19.20;99.90;;;;;;5000261;28;20544;-81
2022/06/21 05:08:18;;;;;;;5.53;1.58;;;19.20;99.90;;;;;;4937834;28;20058;-81
2022/06/21 05:10:50;;;;;;;2.10;1.23;;;19.40;99.90;;;;;;4940294;28;20047;-81
2022/06/21 05:13:22;;;;;;;0.60;0.60;;;20.00;99.90;;;;;;4941948;29;20206;-83
2022/06/21 05:15:49;;;;;;;1.05;0.95;;;20.30;99.90;;;;;;4940827;29;20091;-79
2022/06/21 05:18:18;;;;;;;;;;;20.70;99.90;;;;;;4938418;29;20047;-82
2022/06/21 05:20:51;;;;;;;1.38;0.82;;;21.40;99.90;;;;;;4940224;29;19960;-82
2022/06/21 05:23:18;;;;;;;1.13;0.88;;;21.50;99.90;;;;;;4925093;29;20588;-79
2022/06/21 05:25:45;;;;;;;0.80;0.68;;;21.20;99.90;;;;;;4940353;29;20098;-77
2022/06/21 05:28:34;;;;;;;0.80;0.65;;;21.20;99.90;;;;;;4940110;29;20039;-78
2022/06/21 05:31:11;;;;;;;0.30;0.30;;;21.90;99.90;;;;;;4939063;29;20098;-79
2022/06/21 05:33:40;;;;;;;;;;;21.60;99.90;;;;;;4939471;29;20031;-79
2022/06/21 05:36:32;;;;;;;0.45;0.40;;;21.50;99.90;;;;;;4939934;29;19936;-79
2022/06/21 05:39:08;;;;;;;0.70;0.70;;;21.50;99.90;;;;;;4940115;29;20458;-79
2022/06/21 05:41:40;;;;;;;0.28;0.28;;;20.40;99.90;;;;;;4926762;29;20518;-78
2022/06/21 05:44:20;;;;;;;14.00;1.15;;;19.70;99.90;;;;;;4993764;28;20092;-78
2022/06/21 05:46:49;;;;;;;0.40;0.40;;;20.00;99.90;;;;;;5019389;28;20045;-77
2022/06/21 05:49:26;;;;;;;0.75;0.70;;;20.40;99.90;;;;;;5018452;28;20087;-78
2022/06/21 05:51:53;;;;;;;;;;;20.60;99.90;;;;;;5019307;28;20120;-79
2022/06/21 05:54:23;;;;;;;8.23;2.15;;;20.40;99.90;;;;;;5027382;28;19913;-95
2022/06/21 05:56:49;;;;;;;0.98;0.65;;;20.40;99.90;;;;;;5016962;28;20017;-91
2022/06/21 05:59:17;;;;;;;;;;;21.00;99.90;;;;;;5024089;28;20335;-94
2022/06/21 06:02:30;;;;;;;1.27;0.50;;;22.70;99.90;;;;;;5023556;28;19916;-95
2022/06/21 06:05:06;;;;;;;0.40;0.40;;;24.60;99.90;;;;;;4911272;29;20076;-93
2022/06/21 06:07:39;;;;;;;0.22;0.22;;;26.40;99.90;;;;;;4907798;29;20037;-94
2022/06/21 06:10:06;;;;;;;0.28;0.28;;;25.70;99.90;;;;;;4911853;29;20188;-93
2022/06/21 06:12:36;;;;;;;4.03;1.55;;;26.80;99.90;;;;;;4911917;29;20044;-90
2022/06/21 06:15:14;;;;;;;0.28;0.28;;;27.10;99.90;;;;;;4908583;29;20032;-90
2022/06/21 06:18:04;;;;;;;0.20;0.20;;;27.70;99.90;;;;;;4907718;29;20028;-91
2022/06/21 06:20:40;;;;;;;0.15;0.15;;;27.80;99.90;;;;;;4904345;29;20028;-92
2022/06/21 06:23:20;;;;;;;4.20;0.80;;;27.30;99.90;;;;;;4910546;29;20060;-91
2022/06/21 06:25:50;;;;;;;0.05;0.05;;;28.60;99.20;;;;;;4906089;29;20055;-91
2022/06/21 06:28:15;;;;;;;0.22;0.22;;;29.50;94.00;;;;;;4905669;29;20079;-91
2022/06/21 06:31:03;;;;;;;0.28;0.28;;;29.70;97.60;;;;;;4906983;29;20119;-90
2022/06/21 06:33:40;;;;;;;0.35;0.35;;;29.70;99.40;;;;;;4908620;29;20031;-85
2022/06/21 06:36:20;;;;;;;0.82;0.70;;;30.10;95.60;;;;;;4981542;28;20041;-85
2022/06/21 06:38:46;;;;;;;0.68;0.60;;;31.10;91.40;;;;;;5025292;28;20029;-84
2022/06/21 06:41:20;;;;;;;2.83;0.65;;;31.70;91.00;;;;;;5022000;28;20040;-85
2022/06/21 06:43:55;;;;;;;0.28;0.28;;;29.70;95.10;;;;;;5022049;28;20071;-84
2022/06/21 06:46:28;;;;;;;1.52;0.88;;;30.10;94.50;;;;;;5022359;28;20061;-85
2022/06/21 06:49:26;;;;;;;0.75;0.38;;;31.10;88.80;;;;;;5022156;28;20171;-85
2022/06/21 06:51:57;;;;;;;0.52;0.32;;;31.10;92.90;;;;;;5013063;28;20045;-84
2022/06/21 06:54:49;;;;;;;0.77;0.55;;;30.80;91.10;;;;;;5017092;28;20132;-82
2022/06/21 06:57:22;;;;;;;0.38;0.38;;;31.70;88.00;;;;;;5021648;28;20084;-82
2022/06/21 06:59:48;;;;;;;0.35;0.35;;;31.40;90.40;;;;;;5024894;28;20527;-82
2022/06/21 07:02:38;;;;;;;0.25;0.22;;;32.30;89.40;;;;;;5021481;28;20120;-82
2022/06/21 07:05:17;;;;;;;0.20;0.20;;;33.10;82.00;;;;;;5021378;28;20544;-82
2022/06/21 07:07:48;;;;;;;1.23;0.35;;;33.00;75.80;;;;;;5021460;28;20037;-82
2022/06/21 07:10:19;;;;;;;0.30;0.30;;;33.30;77.90;;;;;;5022177;28;20525;-82
2022/06/21 07:12:46;;;;;;;8.13;0.90;;;33.50;77.70;;;;;;5025330;28;20503;-82
2022/06/21 07:15:13;;;;;;;0.85;0.65;;;34.20;76.60;;;;;;5024265;28;20030;-82
2022/06/21 07:17:55;;;;;;;0.40;0.40;;;34.70;72.80;;;;;;5024902;28;20025;-82
2022/06/21 07:20:37;;;;;;;1.02;0.80;;;34.60;72.70;;;;;;5024296;28;20026;-82
2022/06/21 07:23:10;;;;;;;0.50;0.50;;;35.50;70.90;;;;;;5008182;28;20078;-82
2022/06/21 07:25:38;;;;;;;8.17;1.77;;;34.50;72.60;;;;;;5023170;28;20284;-82
2022/06/21 07:28:37;;;;;;;0.20;0.20;;;34.90;68.40;;;;;;5013615;28;20288;-82
2022/06/21 07:31:41;;;;;;;0.50;0.50;;;35.50;65.80;;;;;;5010051;28;20876;-82
2022/06/21 07:34:20;;;;;;;0.45;0.45;;;36.30;64.10;;;;;;5000912;28;20048;-82
2022/06/21 07:36:52;;;;;;;0.73;0.52;;;35.90;64.40;;;;;;5005935;28;20037;-82
2022/06/21 07:39:20;;;;;;;2.60;0.22;;;36.60;63.40;;;;;;5024041;28;20040;-83
2022/06/21 07:42:06;;;;;;;0.00;0.00;;;36.90;60.00;;;;;;5024279;28;20029;-83
2022/06/21 07:44:46;;;;;;;0.25;0.25;;;37.00;59.40;;;;;;5023866;28;20030;-83
2022/06/21 07:47:24;;;;;;;1.42;0.63;;;36.60;59.60;;;;;;5024114;28;20140;-83
2022/06/21 07:49:54;;;;;;;0.17;0.17;;;36.90;59.10;;;;;;5005613;28;20033;-83
2022/06/21 07:52:40;;;;;;;0.17;0.17;;;37.30;60.10;;;;;;5023820;28;20038;-83
2022/06/21 07:55:25;;;;;;;1.98;0.10;;;37.30;59.20;;;;;;5013778;28;20030;-83
2022/06/21 07:58:00;;;;;;;8.25;0.85;;;37.30;58.00;;;;;;5023710;28;20063;-83
2022/06/21 08:06:40;;;;;;;0.85;0.55;;;37.40;58.70;;;;;;5018381;28;20045;-83
2022/06/21 08:09:02;;;;;;;1.10;0.73;;;38.00;54.90;;;;;;5023421;28;20051;-83
2022/06/21 08:11:36;;;;;;;2.25;0.38;;;38.30;57.30;;;;;;5022782;28;20504;-83
2022/06/21 08:14:02;;;;;;;0.20;0.20;;;38.60;52.70;;;;;;5005257;28;20489;-83
2022/06/21 08:16:55;;;;;;;0.20;0.20;;;39.30;55.30;;;;;;5023265;28;20120;-83
2022/06/21 08:19:30;;;;;;;0.50;0.50;;;38.60;55.00;;;;;;5015336;28;20116;-83
2022/06/21 08:22:02;;;;;;;0.10;0.10;;;36.40;61.60;;;;;;5023049;28;20045;-82
2022/06/21 08:24:34;;;;;;;0.35;0.35;;;36.90;60.10;;;;;;5018417;28;20017;-83
2022/06/21 08:27:05;;;;;;;2.40;0.75;;;37.00;58.40;;;;;;5023262;28;20039;-83
2022/06/21 08:29:53;;;;;;;0.20;0.20;;;35.50;61.80;;;;;;5023239;28;20028;-82
2022/06/21 08:32:35;;;;;;;1.85;0.60;;;34.80;64.40;;;;;;5022922;28;20029;-83
2022/06/21 08:35:17;;;;;;;0.40;0.40;;;37.50;62.10;;;;;;5022486;28;20037;-83
2022/06/21 08:37:56;;;;;;;0.65;0.55;;;36.20;59.40;;;;;;5022693;28;20083;-82
2022/06/21 08:40:39;;;;;;;0.90;0.60;;;33.70;68.80;;;;;;5005345;28;20029;-82
2022/06/21 08:43:08;;;;;;;0.73;0.52;;;32.60;75.90;;;;;;5013082;28;20063;-82
2022/06/21 08:45:42;;;;;;;3.58;0.40;;;32.40;73.90;;;;;;5023133;28;20028;-82
2022/06/21 08:48:27;;;;;;;0.22;0.22;;;32.00;76.00;;;;;;5023118;28;20026;-82
2022/06/21 08:51:19;;;;;;;0.35;0.32;;;32.00;77.30;;;;;;5023960;28;20049;-82
2022/06/21 08:53:57;;;;;;;0.30;0.30;;;31.50;79.50;;;;;;5023014;28;20068;-84
2022/06/21 08:56:59;;;;;;;0.77;0.68;;;31.40;78.80;;;;;;5022805;28;20041;-84
2022/06/21 08:59:36;;;;;;;5.43;1.02;;;30.80;77.60;;;;;;4942126;28;20043;-83
2022/06/21 09:02:10;;;;;;;0.47;0.47;;;30.50;86.00;;;;;;4941614;28;20043;-83
2022/06/21 09:05:06;;;;;;;0.55;0.50;;;30.50;80.90;;;;;;4941731;29;20051;-83
2022/06/21 09:08:27;;;;;;;0.20;0.20;;;30.80;82.70;;;;;;4941574;29;20035;-84
2022/06/21 09:11:20;;;;;;;0.73;0.73;;;30.90;83.20;;;;;;4899159;29;20044;-84
2022/06/21 09:14:24;;;;;;;1.00;0.80;;;30.70;86.20;;;;;;4903725;29;20044;-84
2022/06/21 09:17:04;;;;;;;0.37;0.37;;;32.10;81.10;;;;;;4903280;29;20052;-84
2022/06/21 09:19:51;;;;;;;1.70;1.20;;;31.80;78.00;;;;;;4903469;29;20044;-83
2022/06/21 09:22:42;;;;;;;0.75;0.60;;;31.70;78.50;;;;;;4903255;29;20108;-83
2022/06/21 09:25:56;;;;;;;0.38;0.38;;;34.70;73.80;;;;;;4903511;29;20047;-82
2022/06/21 09:28:50;;;;;;;0.75;0.75;;;35.30;65.10;;;;;;4865662;29;20133;-82
2022/06/21 09:31:38;;;;;;;0.95;0.57;;;34.30;68.40;;;;;;4796900;29;20056;-82
2022/06/21 09:34:14;;;;;;;1.88;0.95;;;36.20;62.80;;;;;;4805269;29;20085;-82
2022/06/21 09:37:02;;;;;;;3.53;1.02;;;35.20;64.60;;;;;;4833460;29;20100;-82
2022/06/21 09:39:59;;;;;;;0.32;0.32;;;35.20;64.60;;;;;;4855047;29;20082;-82
2022/06/21 09:42:49;;;;;;;1.45;0.95;;;34.60;64.30;;;;;;4854717;29;20045;-82
2022/06/21 09:45:17;;;;;;;0.38;0.38;;;32.90;72.60;;;;;;4865137;29;20247;-82
2022/06/21 09:48:01;;;;;;;0.60;0.60;;;33.80;71.50;;;;;;4890130;29;20055;-82
2022/06/21 09:50:50;;;;;;;2.20;0.60;;;33.40;67.40;;;;;;4892891;29;20492;-82
2022/06/21 09:53:31;;;;;;;0.57;0.45;;;35.50;62.30;;;;;;4890009;29;20044;-84
2022/06/21 09:55:56;;;;;;;0.35;0.20;;;33.10;69.10;;;;;;4890297;29;20087;-84
2022/06/21 09:58:26;;;;;;;0.25;0.25;;;33.20;68.10;;;;;;4887103;29;20135;-84
2022/06/21 10:01:05;;;;;;;6.05;1.17;;;33.30;67.40;;;;;;4867701;29;20479;-86
2022/06/21 10:04:15;;;;;;;0.15;0.13;;;32.70;69.60;;;;;;4871650;29;20083;-86
2022/06/21 10:06:58;;;;;;;0.10;0.10;;;33.40;69.70;;;;;;4912585;29;20119;-86
2022/06/21 10:09:49;;;;;;;1.10;0.73;;;32.80;74.00;;;;;;4998950;28;20116;-86
2022/06/21 10:12:32;;;;;;;0.50;0.32;;;32.00;75.80;;;;;;5003816;28;20038;-86
2022/06/21 10:15:36;;;;;;;2.55;1.23;;;32.20;74.40;;;;;;5002609;28;20021;-86
2022/06/21 10:18:34;;;;;;;1.63;0.83;;;31.40;78.80;;;;;;5002604;28;20072;-85
2022/06/21 10:21:15;;;;;;;0.28;0.22;;;32.10;76.50;;;;;;4994731;28;20280;-86
2022/06/21 10:24:04;;;;;;;0.25;0.25;;;33.00;74.60;;;;;;5004847;28;20075;-86
2022/06/21 10:26:53;;;;;;;8.10;1.20;;;32.10;76.50;;;;;;4907080;29;20044;-86
2022/06/21 10:29:29;;;;;;;0.95;0.57;;;31.50;81.50;;;;;;4906447;29;20123;-86
2022/06/21 10:32:25;;;;;;;0.55;0.55;;;31.30;80.20;;;;;;4906376;29;20049;-86
2022/06/21 10:35:02;;;;;;;1.00;0.93;;;31.70;81.50;;;;;;4906079;29;20107;-86
2022/06/21 10:38:02;;;;;;;0.85;0.82;;;32.20;79.80;;;;;;4906302;29;20120;-86
2022/06/21 10:40:44;;;;;;;0.20;0.20;;;31.60;80.80;;;;;;4899680;29;20608;-86
2022/06/21 10:43:44;;;;;;;5.63;1.02;;;31.30;81.70;;;;;;4899224;29;20615;-86
2022/06/21 10:46:19;;;;;;;0.38;0.38;;;31.00;83.30;;;;;;4905690;29;20594;-86
2022/06/21 10:49:14;;;;;;;0.20;0.20;;;31.00;85.20;;;;;;4905663;29;20039;-86
2022/06/21 10:52:07;;;;;;;0.95;0.60;;;30.80;87.40;;;;;;4905989;29;20044;-85
2022/06/21 10:54:57;;;;;;;1.55;0.55;;;30.40;88.00;;;;;;4906000;29;20602;-86
2022/06/21 10:57:38;;;;;;;0.85;0.80;;;30.90;89.00;;;;;;4905690;29;20052;-86
2022/06/21 11:02:56;;;;;;;2.90;1.83;;;30.00;91.40;;;;;;4941073;28;20496;-85
2022/06/21 11:05:25;;;;;;;1.15;0.95;;;29.50;93.50;;;;;;5024562;28;20400;-85
2022/06/21 11:08:38;;;;;;;0.38;0.38;;;29.40;92.80;;;;;;5024460;28;20500;-85
2022/06/21 11:11:29;;;;;;;1.95;1.15;;;29.50;93.30;;;;;;4975094;28;20076;-85
2022/06/21 11:14:16;;;;;;;1.23;0.95;;;29.60;93.60;;;;;;4976886;28;20138;-86
2022/06/21 11:17:06;;;;;;;0.55;0.55;;;30.00;91.50;;;;;;4976449;28;20039;-85
2022/06/21 11:20:05;;;;;;;1.35;0.57;;;30.10;92.40;;;;;;4980845;28;20030;-86
2022/06/21 11:22:45;;;;;;;0.47;0.47;;;30.90;90.80;;;;;;4976652;28;20050;-86
2022/06/21 11:25:36;;;;;;;0.75;0.75;;;30.70;91.30;;;;;;4975014;28;20525;-86
2022/06/21 11:28:27;;;;;;;0.25;0.20;;;31.80;85.50;;;;;;4980827;28;20034;-86
2022/06/21 11:30:58;;;;;;;0.32;0.20;;;32.00;88.10;;;;;;4981255;28;20038;-86
2022/06/21 11:33:50;;;;;;;1.27;1.15;;;32.10;84.80;;;;;;4980828;28;20129;-86
2022/06/21 11:36:36;;;;;;;0.95;0.60;;;31.70;84.40;;;;;;4980018;28;20051;-86
2022/06/21 11:39:20;;;;;;;0.22;0.22;;;31.90;86.30;;;;;;4979140;28;20615;-86
2022/06/21 11:42:06;;;;;;;0.30;0.30;;;31.50;85.20;;;;;;4982457;28;20042;-86
2022/06/21 11:44:34;;;;;;;2.38;1.13;;;30.80;88.40;;;;;;4980074;28;20065;-85
2022/06/21 11:47:12;;;;;;;3.75;1.00;;;31.50;90.30;;;;;;4973890;28;20458;-86
2022/06/21 11:49:47;;;;;;;2.33;1.15;;;31.40;90.20;;;;;;5023799;28;20460;-85
2022/06/21 11:52:29;;;;;;;0.47;0.47;;;31.40;88.60;;;;;;5014700;28;20037;-86
2022/06/21 11:55:03;;;;;;;1.10;0.85;;;30.70;89.60;;;;;;5023604;28;20033;-84
2022/06/21 11:57:53;;;;;;;9.43;0.60;;;30.20;88.70;;;;;;5017282;28;20385;-84
2022/06/21 12:00:35;;;;;;;0.50;0.40;;;29.70;91.80;;;;;;5004331;28;20053;-83
2022/06/21 12:03:03;;;;;;;4.90;1.25;;;29.80;91.70;;;;;;5013469;28;20560;-83
2022/06/21 12:05:42;;;;;;;1.40;1.15;;;29.70;93.10;;;;;;5001634;28;20036;-83
2022/06/21 12:08:33;;;;;;;1.25;0.63;;;30.00;91.80;;;;;;5006007;28;20114;-83
2022/06/21 12:11:33;;;;;;;0.20;0.20;;;30.70;91.00;;;;;;5006947;28;20038;-83
2022/06/21 12:14:27;;;;;;;0.30;0.30;;;30.90;88.70;;;;;;5007745;28;20027;-84
2022/06/21 12:17:07;;;;;;;1.05;0.95;;;30.30;91.10;;;;;;5002441;28;20053;-83
2022/06/21 12:19:40;;;;;;;0.38;0.30;;;30.70;90.80;;;;;;5008007;28;20022;-83
2022/06/21 12:22:39;;;;;;;0.73;0.40;;;30.70;91.20;;;;;;4980300;28;20123;-83
2022/06/21 12:25:11;;;;;;;2.50;1.50;;;30.90;90.60;;;;;;4997323;28;20032;-84
2022/06/21 12:27:36;;;;;;;0.65;0.60;;;30.50;90.80;;;;;;5004915;28;20034;-84
2022/06/21 12:30:14;;;;;;;;;;;30.90;91.80;;;;;;5006854;28;20025;-84
2022/06/21 12:32:39;;;;;;;3.40;1.13;;;31.30;90.40;;;;;;5008426;28;19936;-83
2022/06/21 12:35:10;;;;;;;;;;;31.20;90.00;;;;;;5008136;28;20109;-84
2022/06/21 12:37:54;;;;;;;1.02;0.70;;;30.90;90.70;;;;;;5007721;28;19921;-83
2022/06/21 12:40:42;;;;;;;0.40;0.40;;;30.90;90.00;;;;;;4999423;28;20049;-83
2022/06/21 12:43:27;;;;;;;2.08;0.85;;;30.60;90.60;;;;;;4992484;28;20464;-84
2022/06/21 12:46:05;;;;;;;1.85;1.30;;;30.50;90.60;;;;;;5007715;28;20063;-84
2022/06/21 12:48:52;;;;;;;1.15;0.82;;;30.20;91.10;;;;;;4999291;28;20034;-83
2022/06/21 12:51:24;;;;;;;0.35;0.35;;;30.30;92.10;;;;;;5003767;28;20029;-83
2022/06/21 12:54:02;;;;;;;0.43;0.43;;;30.10;92.00;;;;;;5008064;28;20057;-84
2022/06/21 12:56:52;;;;;;;1.13;0.73;;;30.60;91.00;;;;;;5007580;28;20041;-84
2022/06/21 12:59:37;;;;;;;0.70;0.70;;;30.10;90.90;;;;;;5006552;28;20042;-83
2022/06/21 13:02:21;;;;;;;1.23;1.13;;;29.80;91.20;;;;;;5002834;28;20034;-83
2022/06/21 13:04:59;;;;;;;0.30;0.30;;;29.50;93.30;;;;;;5008249;28;20036;-84
2022/06/21 13:07:38;;;;;;;1.15;0.85;;;30.00;92.60;;;;;;5011970;28;20227;-84
2022/06/21 13:10:22;;;;;;;1.10;1.05;;;29.80;92.60;;;;;;5006828;28;20033;-83
2022/06/21 13:13:06;;;;;;;0.32;0.32;;;29.70;92.90;;;;;;5005309;28;20040;-83
2022/06/21 13:15:50;;;;;;;1.25;0.88;;;29.80;93.60;;;;;;4996804;28;20094;-83
2022/06/21 13:18:31;;;;;;;4.05;1.58;;;29.90;92.40;;;;;;5003366;28;20053;-83
2022/06/21 13:21:25;;;;;;;2.05;1.15;;;29.90;91.40;;;;;;5004396;28;20179;-83
2022/06/21 13:24:21;;;;;;;9.93;1.10;;;29.80;94.00;;;;;;5008104;28;20025;-83
2022/06/21 13:26:53;;;;;;;0.75;0.75;;;29.90;92.40;;;;;;5006914;28;20064;-83
2022/06/21 13:30:11;;;;;;;3.13;0.32;;;29.80;93.40;;;;;;5006273;28;20033;-84
2022/06/21 13:32:52;;;;;;;2.08;1.48;;;30.20;92.00;;;;;;4846113;29;20160;-83
2022/06/21 13:35:39;;;;;;;3.20;1.27;;;30.10;91.70;;;;;;4843133;29;20584;-83
2022/06/21 13:38:47;;;;;;;0.77;0.77;;;30.10;91.00;;;;;;4846971;29;20053;-83
2022/06/21 13:44:26;;;;;;;0.60;0.60;;;30.30;91.50;;;;;;4841691;29;20136;-83
2022/06/21 13:47:11;;;;;;;9.43;1.08;;;29.90;91.80;;;;;;4847242;29;20520;-84
2022/06/21 13:49:40;;;;;;;;;;;29.80;91.40;;;;;;4837619;29;20049;-83
2022/06/21 13:52:45;;;;;;;2.42;0.93;;;30.00;94.20;;;;;;4847072;29;19919;-84
2022/06/21 13:55:40;;;;;;;0.55;0.32;;;29.70;91.70;;;;;;4835309;29;20121;-83
2022/06/21 13:58:38;;;;;;;1.08;1.00;;;29.50;91.80;;;;;;4838090;29;20067;-83
2022/06/21 14:01:24;;;;;;;3.60;1.50;;;29.70;92.10;;;;;;4862720;29;20045;-84
2022/06/21 14:04:05;;;;;;;0.45;0.40;;;30.30;89.90;;;;;;4865356;29;20037;-83
2022/06/21 14:06:45;;;;;;;0.20;0.20;;;30.50;86.90;;;;;;4853294;29;20036;-84
2022/06/21 14:09:17;;;;;;;0.32;0.32;;;30.70;90.30;;;;;;4937370;28;20095;-83